Terminal Aerodrome Forecast
Issued by NWS

Home | Current Version | Previous Version | Text Only | Print | Product List | Glossary Off
Versions: 1 2 3 4 5 6 7 8 9 10 11 12

000
FTUS45 KGGW 090520
TAFGDV
TAF
KGDV 090520Z 0906/1006 29009KT P6SM SKC
     FM091300 26008KT P6SM SKC WS020/32035KT
     FM091900 27013KT P6SM SKC WS020/31040KT=

USA.gov is the U.S. government's official web portal to all federal, state and local government web resources and services.